sensor_id;sensor_type;location;lat;lon;timestamp;temperature;humidity
21033;DHT22;10675;47.976;7.824;2024-02-15T00:02:13;10.00;99.90
21033;DHT22;10675;47.976;7.824;2024-02-15T00:04:38;10.00;99.90
21033;DHT22;10675;47.976;7.824;2024-02-15T00:07:04;9.90;99.90
21033;DHT22;10675;47.976;7.824;2024-02-15T00:09:30;9.80;99.90
21033;DHT22;10675;47.976;7.824;2024-02-15T00:11:56;9.80;99.90
21033;DHT22;10675;47.976;7.824;2024-02-15T00:14:21;9.80;99.90
21033;DHT22;10675;47.976;7.824;2024-02-15T00:16:47;9.80;99.90
21033;DHT22;10675;47.976;7.824;2024-02-15T00:19:12;9.80;99.90
21033;DHT22;10675;47.976;7.824;2024-02-15T00:21:43;9.80;99.90
21033;DHT22;10675;47.976;7.824;2024-02-15T00:24:09;9.80;99.90
21033;DHT22;10675;47.976;7.824;2024-02-15T00:26:35;9.80;99.90
21033;DHT22;10675;47.976;7.824;2024-02-15T00:29:01;9.80;99.90
21033;DHT22;10675;47.976;7.824;2024-02-15T00:31:27;9.70;99.90
21033;DHT22;10675;47.976;7.824;2024-02-15T00:33:52;9.70;99.90
21033;DHT22;10675;47.976;7.824;2024-02-15T00:36:19;9.70;99.90
21033;DHT22;10675;47.976;7.824;2024-02-15T00:38:44;9.80;99.90
21033;DHT22;10675;47.976;7.824;2024-02-15T00:41:10;9.70;99.90
21033;DHT22;10675;47.976;7.824;2024-02-15T00:43:36;9.60;99.90
21033;DHT22;10675;47.976;7.824;2024-02-15T00:46:02;9.60;99.90
21033;DHT22;10675;47.976;7.824;2024-02-15T00:48:28;9.50;99.90
21033;DHT22;10675;47.976;7.824;2024-02-15T00:50:56;9.50;99.90
21033;DHT22;10675;47.976;7.824;2024-02-15T00:53:23;9.50;99.90
21033;DHT22;10675;47.976;7.824;2024-02-15T00:55:48;9.50;99.90
21033;DHT22;10675;47.976;7.824;2024-02-15T00:58:14;9.40;99.90
21033;DHT22;10675;47.976;7.824;2024-02-15T01:00:39;9.20;99.90
21033;DHT22;10675;47.976;7.824;2024-02-15T01:03:05;9.20;99.90
21033;DHT22;10675;47.976;7.824;2024-02-15T01:05:30;9.10;99.90
21033;DHT22;10675;47.976;7.824;2024-02-15T01:07:56;9.10;99.90
21033;DHT22;10675;47.976;7.824;2024-02-15T01:10:22;9.00;99.90
21033;DHT22;10675;47.976;7.824;2024-02-15T01:12:50;8.90;99.90
21033;DHT22;10675;47.976;7.824;2024-02-15T01:15:15;8.90;99.90
21033;DHT22;10675;47.976;7.824;2024-02-15T01:17:45;8.90;99.90
21033;DHT22;10675;47.976;7.824;2024-02-15T01:20:11;8.70;99.90
21033;DHT22;10675;47.976;7.824;2024-02-15T01:22:37;8.70;99.90
21033;DHT22;10675;47.976;7.824;2024-02-15T01:25:03;8.60;99.90
21033;DHT22;10675;47.976;7.824;2024-02-15T01:27:28;8.60;99.90
21033;DHT22;10675;47.976;7.824;2024-02-15T01:29:56;8.60;99.90
21033;DHT22;10675;47.976;7.824;2024-02-15T01:32:21;8.50;99.90
21033;DHT22;10675;47.976;7.824;2024-02-15T01:34:47;8.60;99.90
21033;DHT22;10675;47.976;7.824;2024-02-15T01:37:13;8.50;99.90
21033;DHT22;10675;47.976;7.824;2024-02-15T01:39:38;8.40;99.90
21033;DHT22;10675;47.976;7.824;2024-02-15T01:42:04;8.40;99.90
21033;DHT22;10675;47.976;7.824;2024-02-15T01:44:30;8.30;99.90
21033;DHT22;10675;47.976;7.824;2024-02-15T01:46:56;8.30;99.90
21033;DHT22;10675;47.976;7.824;2024-02-15T01:49:22;8.30;99.90
21033;DHT22;10675;47.976;7.824;2024-02-15T01:51:50;8.30;99.90
21033;DHT22;10675;47.976;7.824;2024-02-15T01:54:17;8.20;99.90
21033;DHT22;10675;47.976;7.824;2024-02-15T01:56:44;8.10;99.90
21033;DHT22;10675;47.976;7.824;2024-02-15T01:59:12;8.10;99.90
21033;DHT22;10675;47.976;7.824;2024-02-15T02:01:39;8.10;99.90
21033;DHT22;10675;47.976;7.824;2024-02-15T02:04:05;8.10;99.90
21033;DHT22;10675;47.976;7.824;2024-02-15T02:06:30;8.00;99.90
21033;DHT22;10675;47.976;7.824;2024-02-15T02:08:57;7.80;99.90
21033;DHT22;10675;47.976;7.824;2024-02-15T02:11:23;7.90;99.90
21033;DHT22;10675;47.976;7.824;2024-02-15T02:13:49;7.90;99.90
21033;DHT22;10675;47.976;7.824;2024-02-15T02:16:27;7.90;99.90
21033;DHT22;10675;47.976;7.824;2024-02-15T02:18:57;8.00;99.90
21033;DHT22;10675;47.976;7.824;2024-02-15T02:21:24;8.00;99.90
21033;DHT22;10675;47.976;7.824;2024-02-15T02:23:53;7.90;99.90
21033;DHT22;10675;47.976;7.824;2024-02-15T02:26:21;7.90;99.90
21033;DHT22;10675;47.976;7.824;2024-02-15T02:28:47;7.80;99.90
21033;DHT22;10675;47.976;7.824;2024-02-15T02:31:13;7.80;99.90
21033;DHT22;10675;47.976;7.824;2024-02-15T02:33:40;7.80;99.90
21033;DHT22;10675;47.976;7.824;2024-02-15T02:36:06;7.80;99.90
21033;DHT22;10675;47.976;7.824;2024-02-15T02:38:37;7.80;99.90
21033;DHT22;10675;47.976;7.824;2024-02-15T02:41:06;7.60;99.90
21033;DHT22;10675;47.976;7.824;2024-02-15T02:43:31;7.60;99.90
21033;DHT22;10675;47.976;7.824;2024-02-15T02:45:57;7.60;99.90
21033;DHT22;10675;47.976;7.824;2024-02-15T02:48:23;7.50;99.90
21033;DHT22;10675;47.976;7.824;2024-02-15T02:50:49;7.50;99.90
21033;DHT22;10675;47.976;7.824;2024-02-15T02:53:15;7.60;99.90
21033;DHT22;10675;47.976;7.824;2024-02-15T02:55:43;7.60;99.90
21033;DHT22;10675;47.976;7.824;2024-02-15T02:58:09;7.70;99.90
21033;DHT22;10675;47.976;7.824;2024-02-15T03:00:34;7.60;99.90
21033;DHT22;10675;47.976;7.824;2024-02-15T03:03:00;7.60;99.90
21033;DHT22;10675;47.976;7.824;2024-02-15T03:05:26;7.50;99.90
21033;DHT22;10675;47.976;7.824;2024-02-15T03:07:52;7.40;99.90
21033;DHT22;10675;47.976;7.824;2024-02-15T03:10:18;7.40;99.90
21033;DHT22;10675;47.976;7.824;2024-02-15T03:12:44;7.40;99.90
21033;DHT22;10675;47.976;7.824;2024-02-15T03:15:13;7.40;99.90
21033;DHT22;10675;47.976;7.824;2024-02-15T03:17:40;7.30;99.90
21033;DHT22;10675;47.976;7.824;2024-02-15T03:20:10;7.30;99.90
21033;DHT22;10675;47.976;7.824;2024-02-15T03:22:55;7.30;99.90
21033;DHT22;10675;47.976;7.824;2024-02-15T03:25:22;7.40;99.90
21033;DHT22;10675;47.976;7.824;2024-02-15T03:27:51;7.40;99.90
21033;DHT22;10675;47.976;7.824;2024-02-15T03:30:26;7.40;99.90
21033;DHT22;10675;47.976;7.824;2024-02-15T03:32:52;7.40;99.90
21033;DHT22;10675;47.976;7.824;2024-02-15T03:35:19;7.30;99.90
21033;DHT22;10675;47.976;7.824;2024-02-15T03:37:45;7.30;99.90
21033;DHT22;10675;47.976;7.824;2024-02-15T03:40:11;7.30;99.90
21033;DHT22;10675;47.976;7.824;2024-02-15T03:42:37;7.30;99.90
21033;DHT22;10675;47.976;7.824;2024-02-15T03:45:06;7.20;99.90
21033;DHT22;10675;47.976;7.824;2024-02-15T03:47:35;7.30;99.90
21033;DHT22;10675;47.976;7.824;2024-02-15T03:50:08;7.30;99.90
21033;DHT22;10675;47.976;7.824;2024-02-15T03:52:35;7.30;99.90
21033;DHT22;10675;47.976;7.824;2024-02-15T03:55:01;7.20;99.90
21033;DHT22;10675;47.976;7.824;2024-02-15T03:57:27;7.20;99.90
21033;DHT22;10675;47.976;7.824;2024-02-15T03:59:53;7.20;99.90
21033;DHT22;10675;47.976;7.824;2024-02-15T04:02:20;7.20;99.90
21033;DHT22;10675;47.976;7.824;2024-02-15T04:04:46;7.20;99.90
21033;DHT22;10675;47.976;7.824;2024-02-15T04:07:15;7.30;99.90
21033;DHT22;10675;47.976;7.824;2024-02-15T04:09:42;7.20;99.90
21033;DHT22;10675;47.976;7.824;2024-02-15T04:12:07;7.10;99.90
21033;DHT22;10675;47.976;7.824;2024-02-15T04:14:34;7.10;99.90
21033;DHT22;10675;47.976;7.824;2024-02-15T04:17:00;7.10;99.90
21033;DHT22;10675;47.976;7.824;2024-02-15T04:19:27;7.10;99.90
21033;DHT22;10675;47.976;7.824;2024-02-15T04:21:53;7.00;99.90
21033;DHT22;10675;47.976;7.824;2024-02-15T04:24:21;7.00;99.90
21033;DHT22;10675;47.976;7.824;2024-02-15T04:26:47;7.00;99.90
21033;DHT22;10675;47.976;7.824;2024-02-15T04:29:14;6.90;99.90
21033;DHT22;10675;47.976;7.824;2024-02-15T04:31:40;6.90;99.90
21033;DHT22;10675;47.976;7.824;2024-02-15T04:34:06;7.00;99.90
21033;DHT22;10675;47.976;7.824;2024-02-15T04:36:32;7.00;99.90
21033;DHT22;10675;47.976;7.824;2024-02-15T04:39:00;7.00;99.90
21033;DHT22;10675;47.976;7.824;2024-02-15T04:41:27;7.00;99.90
21033;DHT22;10675;47.976;7.824;2024-02-15T04:43:54;6.90;99.90
21033;DHT22;10675;47.976;7.824;2024-02-15T04:46:20;6.90;99.90
21033;DHT22;10675;47.976;7.824;2024-02-15T04:48:50;7.00;99.90
21033;DHT22;10675;47.976;7.824;2024-02-15T04:51:16;7.00;99.90
21033;DHT22;10675;47.976;7.824;2024-02-15T04:53:45;7.00;99.90
21033;DHT22;10675;47.976;7.824;2024-02-15T04:56:12;7.00;99.90
21033;DHT22;10675;47.976;7.824;2024-02-15T04:58:43;7.00;99.90
21033;DHT22;10675;47.976;7.824;2024-02-15T05:01:16;7.00;99.90
21033;DHT22;10675;47.976;7.824;2024-02-15T05:03:46;6.90;99.90
21033;DHT22;10675;47.976;7.824;2024-02-15T05:06:12;7.00;99.90
21033;DHT22;10675;47.976;7.824;2024-02-15T05:08:39;7.00;99.90
21033;DHT22;10675;47.976;7.824;2024-02-15T05:11:11;7.00;99.90
21033;DHT22;10675;47.976;7.824;2024-02-15T05:13:45;7.00;99.90
21033;DHT22;10675;47.976;7.824;2024-02-15T05:16:11;7.00;99.90
21033;DHT22;10675;47.976;7.824;2024-02-15T05:18:37;7.00;99.90
21033;DHT22;10675;47.976;7.824;2024-02-15T05:21:05;7.00;99.90
21033;DHT22;10675;47.976;7.824;2024-02-15T05:23:38;7.00;99.90
21033;DHT22;10675;47.976;7.824;2024-02-15T05:26:05;7.00;99.90
21033;DHT22;10675;47.976;7.824;2024-02-15T05:28:31;6.90;99.90
21033;DHT22;10675;47.976;7.824;2024-02-15T05:31:17;6.90;99.90
21033;DHT22;10675;47.976;7.824;2024-02-15T05:33:46;6.90;99.90
21033;DHT22;10675;47.976;7.824;2024-02-15T05:36:20;7.00;99.90
21033;DHT22;10675;47.976;7.824;2024-02-15T05:38:49;7.00;99.90
21033;DHT22;10675;47.976;7.824;2024-02-15T05:41:14;6.90;99.90
21033;DHT22;10675;47.976;7.824;2024-02-15T05:43:40;6.80;99.90
21033;DHT22;10675;47.976;7.824;2024-02-15T05:46:10;6.80;99.90
21033;DHT22;10675;47.976;7.824;2024-02-15T05:48:36;6.90;99.90
21033;DHT22;10675;47.976;7.824;2024-02-15T05:51:08;6.80;99.90
21033;DHT22;10675;47.976;7.824;2024-02-15T05:53:34;6.90;99.90
21033;DHT22;10675;47.976;7.824;2024-02-15T05:56:05;6.90;99.90
21033;DHT22;10675;47.976;7.824;2024-02-15T05:58:31;7.00;99.90
21033;DHT22;10675;47.976;7.824;2024-02-15T06:01:01;7.00;99.90
21033;DHT22;10675;47.976;7.824;2024-02-15T06:03:30;6.90;99.90
21033;DHT22;10675;47.976;7.824;2024-02-15T06:05:58;6.90;99.90
21033;DHT22;10675;47.976;7.824;2024-02-15T06:08:25;7.00;99.90
21033;DHT22;10675;47.976;7.824;2024-02-15T06:10:51;7.00;99.90
21033;DHT22;10675;47.976;7.824;2024-02-15T06:13:18;7.00;99.90
21033;DHT22;10675;47.976;7.824;2024-02-15T06:15:43;7.00;99.90
21033;DHT22;10675;47.976;7.824;2024-02-15T06:18:12;7.20;99.90
21033;DHT22;10675;47.976;7.824;2024-02-15T06:20:40;7.10;99.90
21033;DHT22;10675;47.976;7.824;2024-02-15T06:23:06;7.10;99.90
21033;DHT22;10675;47.976;7.824;2024-02-15T06:25:33;7.10;99.90
21033;DHT22;10675;47.976;7.824;2024-02-15T06:28:00;7.00;99.90
21033;DHT22;10675;47.976;7.824;2024-02-15T06:30:32;7.20;99.90
21033;DHT22;10675;47.976;7.824;2024-02-15T06:33:16;7.20;99.90
21033;DHT22;10675;47.976;7.824;2024-02-15T06:36:04;7.20;99.90
21033;DHT22;10675;47.976;7.824;2024-02-15T06:38:48;7.30;99.90
21033;DHT22;10675;47.976;7.824;2024-02-15T06:41:32;7.30;99.90
21033;DHT22;10675;47.976;7.824;2024-02-15T06:43:59;7.30;99.90
21033;DHT22;10675;47.976;7.824;2024-02-15T06:46:24;7.30;99.90
21033;DHT22;10675;47.976;7.824;2024-02-15T06:48:50;7.30;99.90
21033;DHT22;10675;47.976;7.824;2024-02-15T06:51:15;7.40;99.90
21033;DHT22;10675;47.976;7.824;2024-02-15T06:53:41;7.40;99.90
21033;DHT22;10675;47.976;7.824;2024-02-15T06:56:10;7.50;99.90
21033;DHT22;10675;47.976;7.824;2024-02-15T06:58:36;7.50;99.90
21033;DHT22;10675;47.976;7.824;2024-02-15T07:01:02;7.60;99.90
21033;DHT22;10675;47.976;7.824;2024-02-15T07:03:28;7.50;99.90
21033;DHT22;10675;47.976;7.824;2024-02-15T07:06:00;7.50;99.90
21033;DHT22;10675;47.976;7.824;2024-02-15T07:08:26;7.50;99.90
21033;DHT22;10675;47.976;7.824;2024-02-15T07:10:51;7.50;99.90
21033;DHT22;10675;47.976;7.824;2024-02-15T07:13:17;7.50;99.90
21033;DHT22;10675;47.976;7.824;2024-02-15T07:15:44;7.50;99.90
21033;DHT22;10675;47.976;7.824;2024-02-15T07:18:12;7.60;99.90
21033;DHT22;10675;47.976;7.824;2024-02-15T07:20:41;7.70;99.90
21033;DHT22;10675;47.976;7.824;2024-02-15T07:23:07;7.80;99.90
21033;DHT22;10675;47.976;7.824;2024-02-15T07:25:32;7.90;99.90
21033;DHT22;10675;47.976;7.824;2024-02-15T07:27:58;8.00;99.90
21033;DHT22;10675;47.976;7.824;2024-02-15T07:30:24;8.10;99.90
21033;DHT22;10675;47.976;7.824;2024-02-15T07:32:50;8.20;99.90
21033;DHT22;10675;47.976;7.824;2024-02-15T07:35:16;8.20;99.90
21033;DHT22;10675;47.976;7.824;2024-02-15T07:37:55;8.30;99.90
21033;DHT22;10675;47.976;7.824;2024-02-15T07:40:23;8.20;99.90
21033;DHT22;10675;47.976;7.824;2024-02-15T07:42:53;8.30;99.90
21033;DHT22;10675;47.976;7.824;2024-02-15T07:45:18;8.50;99.90
21033;DHT22;10675;47.976;7.824;2024-02-15T07:47:44;8.60;99.90
21033;DHT22;10675;47.976;7.824;2024-02-15T07:50:10;8.60;99.90
21033;DHT22;10675;47.976;7.824;2024-02-15T07:52:36;8.60;99.90
21033;DHT22;10675;47.976;7.824;2024-02-15T07:55:02;8.70;99.90
21033;DHT22;10675;47.976;7.824;2024-02-15T07:57:33;8.70;99.90
21033;DHT22;10675;47.976;7.824;2024-02-15T07:59:58;8.70;99.90
21033;DHT22;10675;47.976;7.824;2024-02-15T08:02:24;8.80;99.90
21033;DHT22;10675;47.976;7.824;2024-02-15T08:04:53;8.70;99.90
21033;DHT22;10675;47.976;7.824;2024-02-15T08:07:19;8.50;99.90
21033;DHT22;10675;47.976;7.824;2024-02-15T08:09:46;8.40;99.90
21033;DHT22;10675;47.976;7.824;2024-02-15T08:12:12;8.40;99.90
21033;DHT22;10675;47.976;7.824;2024-02-15T08:14:37;8.30;99.90
21033;DHT22;10675;47.976;7.824;2024-02-15T08:17:05;8.40;99.90
21033;DHT22;10675;47.976;7.824;2024-02-15T08:19:33;8.60;99.90
21033;DHT22;10675;47.976;7.824;2024-02-15T08:22:04;8.60;99.90
21033;DHT22;10675;47.976;7.824;2024-02-15T08:24:30;8.60;99.90
21033;DHT22;10675;47.976;7.824;2024-02-15T08:26:56;8.80;99.90
21033;DHT22;10675;47.976;7.824;2024-02-15T08:29:24;9.00;99.90
21033;DHT22;10675;47.976;7.824;2024-02-15T08:31:49;9.10;99.90
21033;DHT22;10675;47.976;7.824;2024-02-15T08:34:15;9.40;99.90
21033;DHT22;10675;47.976;7.824;2024-02-15T08:36:44;9.60;99.90
21033;DHT22;10675;47.976;7.824;2024-02-15T08:39:09;9.70;99.90
21033;DHT22;10675;47.976;7.824;2024-02-15T08:41:38;9.80;99.90
21033;DHT22;10675;47.976;7.824;2024-02-15T08:44:04;9.80;99.90
21033;DHT22;10675;47.976;7.824;2024-02-15T08:46:34;9.60;99.90
21033;DHT22;10675;47.976;7.824;2024-02-15T08:49:02;9.60;99.90
21033;DHT22;10675;47.976;7.824;2024-02-15T08:51:31;9.60;99.90
21033;DHT22;10675;47.976;7.824;2024-02-15T08:53:57;9.70;99.90
21033;DHT22;10675;47.976;7.824;2024-02-15T08:56:23;9.80;99.90
21033;DHT22;10675;47.976;7.824;2024-02-15T08:58:49;9.90;99.90
21033;DHT22;10675;47.976;7.824;2024-02-15T09:01:14;10.00;99.90
21033;DHT22;10675;47.976;7.824;2024-02-15T09:03:40;10.20;99.90
21033;DHT22;10675;47.976;7.824;2024-02-15T09:06:06;10.20;99.90
21033;DHT22;10675;47.976;7.824;2024-02-15T09:08:33;10.40;99.90
21033;DHT22;10675;47.976;7.824;2024-02-15T09:10:58;10.50;99.90
21033;DHT22;10675;47.976;7.824;2024-02-15T09:13:24;10.60;99.90
21033;DHT22;10675;47.976;7.824;2024-02-15T09:15:50;10.60;99.90
21033;DHT22;10675;47.976;7.824;2024-02-15T09:18:16;10.70;99.90
21033;DHT22;10675;47.976;7.824;2024-02-15T09:20:43;10.70;99.90
21033;DHT22;10675;47.976;7.824;2024-02-15T09:23:10;10.80;99.90
21033;DHT22;10675;47.976;7.824;2024-02-15T09:25:41;10.90;99.90
21033;DHT22;10675;47.976;7.824;2024-02-15T09:28:09;11.00;99.90
21033;DHT22;10675;47.976;7.824;2024-02-15T09:30:35;11.10;99.90
21033;DHT22;10675;47.976;7.824;2024-02-15T09:33:01;11.20;99.90
21033;DHT22;10675;47.976;7.824;2024-02-15T09:35:30;11.20;99.90
21033;DHT22;10675;47.976;7.824;2024-02-15T09:37:56;11.40;99.90
21033;DHT22;10675;47.976;7.824;2024-02-15T09:40:21;11.40;99.90
21033;DHT22;10675;47.976;7.824;2024-02-15T09:42:52;11.50;99.90
21033;DHT22;10675;47.976;7.824;2024-02-15T09:45:18;11.30;99.90
21033;DHT22;10675;47.976;7.824;2024-02-15T09:47:46;11.10;99.90
21033;DHT22;10675;47.976;7.824;2024-02-15T09:50:16;11.00;99.90
21033;DHT22;10675;47.976;7.824;2024-02-15T09:52:49;11.10;99.90
21033;DHT22;10675;47.976;7.824;2024-02-15T09:55:16;11.20;99.90
21033;DHT22;10675;47.976;7.824;2024-02-15T09:57:43;11.20;99.90
21033;DHT22;10675;47.976;7.824;2024-02-15T10:00:10;11.30;99.90
21033;DHT22;10675;47.976;7.824;2024-02-15T10:02:42;11.40;99.90
21033;DHT22;10675;47.976;7.824;2024-02-15T10:05:10;11.30;99.90
21033;DHT22;10675;47.976;7.824;2024-02-15T10:07:38;11.20;99.90
21033;DHT22;10675;47.976;7.824;2024-02-15T10:10:17;11.30;99.90
21033;DHT22;10675;47.976;7.824;2024-02-15T10:12:45;11.30;99.90
21033;DHT22;10675;47.976;7.824;2024-02-15T10:15:34;11.40;99.90
21033;DHT22;10675;47.976;7.824;2024-02-15T10:18:01;11.60;99.90
21033;DHT22;10675;47.976;7.824;2024-02-15T10:20:27;11.50;99.90
21033;DHT22;10675;47.976;7.824;2024-02-15T10:25:27;11.60;99.90
21033;DHT22;10675;47.976;7.824;2024-02-15T10:28:01;11.80;99.90
21033;DHT22;10675;47.976;7.824;2024-02-15T10:30:27;12.00;99.90
21033;DHT22;10675;47.976;7.824;2024-02-15T10:32:54;12.00;99.90
21033;DHT22;10675;47.976;7.824;2024-02-15T10:35:22;12.20;99.90
21033;DHT22;10675;47.976;7.824;2024-02-15T10:37:49;12.30;99.90
21033;DHT22;10675;47.976;7.824;2024-02-15T10:40:21;12.50;99.90
21033;DHT22;10675;47.976;7.824;2024-02-15T10:42:47;12.60;99.90
21033;DHT22;10675;47.976;7.824;2024-02-15T10:45:15;12.70;99.90
21033;DHT22;10675;47.976;7.824;2024-02-15T10:47:46;13.00;99.90
21033;DHT22;10675;47.976;7.824;2024-02-15T10:50:14;13.00;99.90
21033;DHT22;10675;47.976;7.824;2024-02-15T10:52:51;12.90;99.90
21033;DHT22;10675;47.976;7.824;2024-02-15T10:55:40;12.90;99.90
21033;DHT22;10675;47.976;7.824;2024-02-15T10:58:06;13.10;99.90
21033;DHT22;10675;47.976;7.824;2024-02-15T11:00:35;13.20;99.90
21033;DHT22;10675;47.976;7.824;2024-02-15T11:03:07;13.10;99.90
21033;DHT22;10675;47.976;7.824;2024-02-15T11:05:37;13.10;99.90
21033;DHT22;10675;47.976;7.824;2024-02-15T11:08:08;13.00;99.90
21033;DHT22;10675;47.976;7.824;2024-02-15T11:10:35;13.10;99.90
21033;DHT22;10675;47.976;7.824;2024-02-15T11:13:02;13.10;99.90
21033;DHT22;10675;47.976;7.824;2024-02-15T11:15:44;13.20;99.90
21033;DHT22;10675;47.976;7.824;2024-02-15T11:18:42;13.00;99.90
21033;DHT22;10675;47.976;7.824;2024-02-15T11:21:11;13.10;99.90
21033;DHT22;10675;47.976;7.824;2024-02-15T11:23:37;13.20;99.90
21033;DHT22;10675;47.976;7.824;2024-02-15T11:26:04;13.20;99.90
21033;DHT22;10675;47.976;7.824;2024-02-15T11:30:56;13.40;99.90
21033;DHT22;10675;47.976;7.824;2024-02-15T11:33:31;13.40;99.90
21033;DHT22;10675;47.976;7.824;2024-02-15T11:36:10;13.40;99.90
21033;DHT22;10675;47.976;7.824;2024-02-15T11:38:37;13.40;99.90
21033;DHT22;10675;47.976;7.824;2024-02-15T11:41:07;13.70;99.90
21033;DHT22;10675;47.976;7.824;2024-02-15T11:46:15;13.90;99.90
21033;DHT22;10675;47.976;7.824;2024-02-15T11:48:46;14.00;99.90
21033;DHT22;10675;47.976;7.824;2024-02-15T11:51:31;14.00;99.90
21033;DHT22;10675;47.976;7.824;2024-02-15T11:54:06;13.70;99.90
21033;DHT22;10675;47.976;7.824;2024-02-15T11:59:13;13.40;99.90
21033;DHT22;10675;47.976;7.824;2024-02-15T12:01:55;13.60;99.90
21033;DHT22;10675;47.976;7.824;2024-02-15T12:04:39;13.70;99.90
21033;DHT22;10675;47.976;7.824;2024-02-15T12:07:24;13.90;99.90
21033;DHT22;10675;47.976;7.824;2024-02-15T12:10:18;14.00;99.90
21033;DHT22;10675;47.976;7.824;2024-02-15T12:13:03;14.40;99.90
21033;DHT22;10675;47.976;7.824;2024-02-15T12:16:00;14.50;99.90
21033;DHT22;10675;47.976;7.824;2024-02-15T12:18:45;14.50;99.90
21033;DHT22;10675;47.976;7.824;2024-02-15T12:21:20;14.50;99.90
21033;DHT22;10675;47.976;7.824;2024-02-15T12:23:48;14.70;99.90
21033;DHT22;10675;47.976;7.824;2024-02-15T12:26:21;14.70;99.90
21033;DHT22;10675;47.976;7.824;2024-02-15T12:28:52;14.60;99.90
21033;DHT22;10675;47.976;7.824;2024-02-15T12:31:24;14.70;99.90
21033;DHT22;10675;47.976;7.824;2024-02-15T12:36:26;14.30;99.90
21033;DHT22;10675;47.976;7.824;2024-02-15T12:39:03;14.30;99.90
21033;DHT22;10675;47.976;7.824;2024-02-15T12:41:37;14.40;99.90
21033;DHT22;10675;47.976;7.824;2024-02-15T12:44:03;14.50;99.90
21033;DHT22;10675;47.976;7.824;2024-02-15T12:46:29;14.60;99.90
21033;DHT22;10675;47.976;7.824;2024-02-15T12:49:28;14.70;99.90
21033;DHT22;10675;47.976;7.824;2024-02-15T12:52:32;14.70;99.90
21033;DHT22;10675;47.976;7.824;2024-02-15T12:55:11;15.00;99.90
21033;DHT22;10675;47.976;7.824;2024-02-15T12:57:38;15.00;99.90
21033;DHT22;10675;47.976;7.824;2024-02-15T13:00:07;15.00;99.90
21033;DHT22;10675;47.976;7.824;2024-02-15T13:02:39;15.00;99.90
21033;DHT22;10675;47.976;7.824;2024-02-15T13:05:06;15.10;99.90
21033;DHT22;10675;47.976;7.824;2024-02-15T13:07:36;15.00;99.90
21033;DHT22;10675;47.976;7.824;2024-02-15T13:10:02;15.20;99.90
21033;DHT22;10675;47.976;7.824;2024-02-15T13:12:29;15.20;99.90
21033;DHT22;10675;47.976;7.824;2024-02-15T13:14:54;15.10;99.90
21033;DHT22;10675;47.976;7.824;2024-02-15T13:17:20;15.20;99.90
21033;DHT22;10675;47.976;7.824;2024-02-15T13:19:46;15.40;99.90
21033;DHT22;10675;47.976;7.824;2024-02-15T13:22:14;15.40;99.90
21033;DHT22;10675;47.976;7.824;2024-02-15T13:24:41;15.50;99.90
21033;DHT22;10675;47.976;7.824;2024-02-15T13:27:07;15.50;99.90
21033;DHT22;10675;47.976;7.824;2024-02-15T13:29:38;15.50;99.90
21033;DHT22;10675;47.976;7.824;2024-02-15T13:32:03;15.50;99.90
21033;DHT22;10675;47.976;7.824;2024-02-15T13:34:31;15.50;99.90
21033;DHT22;10675;47.976;7.824;2024-02-15T13:36:58;15.60;99.60
21033;DHT22;10675;47.976;7.824;2024-02-15T13:39:27;15.50;99.90
21033;DHT22;10675;47.976;7.824;2024-02-15T13:42:01;15.60;99.90
21033;DHT22;10675;47.976;7.824;2024-02-15T13:44:27;15.60;99.60
21033;DHT22;10675;47.976;7.824;2024-02-15T13:46:52;15.50;99.80
21033;DHT22;10675;47.976;7.824;2024-02-15T13:49:21;15.50;99.60
21033;DHT22;10675;47.976;7.824;2024-02-15T13:51:47;15.50;99.50
21033;DHT22;10675;47.976;7.824;2024-02-15T13:54:12;15.50;99.70
21033;DHT22;10675;47.976;7.824;2024-02-15T13:56:38;15.60;99.90
21033;DHT22;10675;47.976;7.824;2024-02-15T13:59:05;15.60;99.40
21033;DHT22;10675;47.976;7.824;2024-02-15T14:01:31;15.50;99.40
21033;DHT22;10675;47.976;7.824;2024-02-15T14:03:56;15.40;99.60
21033;DHT22;10675;47.976;7.824;2024-02-15T14:06:22;15.40;99.90
21033;DHT22;10675;47.976;7.824;2024-02-15T14:08:49;15.30;99.80
21033;DHT22;10675;47.976;7.824;2024-02-15T14:11:16;15.40;99.90
21033;DHT22;10675;47.976;7.824;2024-02-15T14:13:42;15.40;99.90
21033;DHT22;10675;47.976;7.824;2024-02-15T14:16:08;15.40;99.80
21033;DHT22;10675;47.976;7.824;2024-02-15T14:18:34;15.50;99.70
21033;DHT22;10675;47.976;7.824;2024-02-15T14:21:00;15.40;99.70
21033;DHT22;10675;47.976;7.824;2024-02-15T14:23:26;15.30;99.90
21033;DHT22;10675;47.976;7.824;2024-02-15T14:25:53;15.40;99.90
21033;DHT22;10675;47.976;7.824;2024-02-15T14:28:19;15.50;99.90
21033;DHT22;10675;47.976;7.824;2024-02-15T14:30:45;15.50;99.80
21033;DHT22;10675;47.976;7.824;2024-02-15T14:33:29;15.50;99.90
21033;DHT22;10675;47.976;7.824;2024-02-15T14:35:55;15.50;99.60
21033;DHT22;10675;47.976;7.824;2024-02-15T14:38:21;15.40;99.60
21033;DHT22;10675;47.976;7.824;2024-02-15T14:40:49;15.40;99.80
21033;DHT22;10675;47.976;7.824;2024-02-15T14:43:25;15.50;99.50
21033;DHT22;10675;47.976;7.824;2024-02-15T14:45:52;15.40;99.90
21033;DHT22;10675;47.976;7.824;2024-02-15T14:48:18;15.40;99.90
21033;DHT22;10675;47.976;7.824;2024-02-15T14:50:46;15.40;99.80
21033;DHT22;10675;47.976;7.824;2024-02-15T14:53:12;15.30;99.90
21033;DHT22;10675;47.976;7.824;2024-02-15T14:55:39;15.30;99.90
21033;DHT22;10675;47.976;7.824;2024-02-15T14:58:07;15.30;99.90
21033;DHT22;10675;47.976;7.824;2024-02-15T15:00:34;15.20;99.90
21033;DHT22;10675;47.976;7.824;2024-02-15T15:03:00;15.20;99.90
21033;DHT22;10675;47.976;7.824;2024-02-15T15:05:25;15.20;99.90
21033;DHT22;10675;47.976;7.824;2024-02-15T15:08:10;15.10;99.90
21033;DHT22;10675;47.976;7.824;2024-02-15T15:10:54;15.10;99.90
21033;DHT22;10675;47.976;7.824;2024-02-15T15:13:38;15.00;99.90
21033;DHT22;10675;47.976;7.824;2024-02-15T15:16:05;14.90;99.90
21033;DHT22;10675;47.976;7.824;2024-02-15T15:18:32;14.90;99.90
21033;DHT22;10675;47.976;7.824;2024-02-15T15:20:59;14.80;99.90
21033;DHT22;10675;47.976;7.824;2024-02-15T15:23:26;14.90;99.90
21033;DHT22;10675;47.976;7.824;2024-02-15T15:25:52;14.80;99.90
21033;DHT22;10675;47.976;7.824;2024-02-15T15:28:17;14.90;99.90
21033;DHT22;10675;47.976;7.824;2024-02-15T15:30:44;14.90;99.90
21033;DHT22;10675;47.976;7.824;2024-02-15T15:33:17;14.90;99.90
21033;DHT22;10675;47.976;7.824;2024-02-15T15:35:44;14.90;99.90
21033;DHT22;10675;47.976;7.824;2024-02-15T15:38:10;14.80;99.90
21033;DHT22;10675;47.976;7.824;2024-02-15T15:40:35;14.60;99.90
21033;DHT22;10675;47.976;7.824;2024-02-15T15:43:01;14.60;99.90
21033;DHT22;10675;47.976;7.824;2024-02-15T15:45:28;14.50;99.90
21033;DHT22;10675;47.976;7.824;2024-02-15T15:47:55;14.50;99.90
21033;DHT22;10675;47.976;7.824;2024-02-15T15:50:20;14.40;99.90
21033;DHT22;10675;47.976;7.824;2024-02-15T15:52:47;14.40;99.90
21033;DHT22;10675;47.976;7.824;2024-02-15T15:55:13;14.40;99.90
21033;DHT22;10675;47.976;7.824;2024-02-15T15:57:40;14.30;99.90
21033;DHT22;10675;47.976;7.824;2024-02-15T16:00:07;14.30;99.90
21033;DHT22;10675;47.976;7.824;2024-02-15T16:02:43;14.20;99.90